• Join FlightAware (Why Join?)
  • Login
  • US Flag 
 
10:52AM EST


 

Airport Tracker/Info


-or-


 

Live Flight TrackerFlight Track Log ✈ AWE2333 ✈ 26-Feb-2014 ✈ KDFW - KORF

Flight Track Log - Related Links

Times and Time Zones

All times are in EST time to prevent confusion due to time zone crossing. See the AWE2333 flight status page for this flight to view local times or setup timezone preferences in your user account.

Time Position Orientation Groundspeed Altitude Reporting Facility
EST Latitude Longitude Course Direction KTS MPH feet Rate Location/Type
07:36PM 32.9167 -97.0333 65° Northeast 170 196 1,200  Level Dallas / Fort Worth TRACON
07:37PM 32.9667 -97.0167 16° North 238 274 3,900 2,880 Climbing Dallas / Fort Worth TRACON
07:39PM 32.6833 -96.8001 90° East  Level FlightAware Approximate
07:39PM 33.0147 -96.9244 58° Northeast 275 316 8,900  Level Fort Worth Center
07:40PM 32.7286 -96.6646 68° East  Level FlightAware Approximate
07:40PM 32.9956 -96.8294 104° East 304 350 9,800  Level Fort Worth Center
07:41PM 32.7746 -96.5294 65° Northeast  Level FlightAware Approximate
07:41PM 32.9667 -96.7208 108° East 322 371 11,400  Level Fort Worth Center
07:42PM 32.8257 -96.3967 65° Northeast  Level FlightAware Approximate
07:42PM 32.9328 -96.5897 107° East 398 458 13,500  Level Fort Worth Center
07:43PM 32.8992 -96.4611 107° East 411 473 16,100 2,460 Climbing Fort Worth Center
07:44PM 32.8658 -96.3128 105° East 433 498 18,600 2,160 Climbing Fort Worth Center
07:45PM 32.8681 -96.1650 89° East 446 513 20,600 1,920 Climbing Fort Worth Center
07:46PM 32.8711 -95.9994 89° East 461 531 22,600 1,680 Climbing Fort Worth Center
07:47PM 32.8739 -95.8369 89° East 481 554 24,100 1,560 Climbing Fort Worth Center
07:48PM 32.8769 -95.6711 89° East 495 570 25,900 1,680 Climbing Fort Worth Center
07:49PM 32.8792 -95.5056 89° East 500 575 27,600 1,500 Climbing Fort Worth Center
07:50PM 32.8847 -95.3381 88° East 506 582 29,100 1,320 Climbing Fort Worth Center
07:51PM 32.9150 -95.1583 79° East 513 590 30,400 1,080 Climbing Fort Worth Center
07:52PM 32.9403 -94.9872 80° East 523 602 31,400 960 Climbing Fort Worth Center
07:53PM 32.9661 -94.8133 80° East 531 611 32,400 720 Climbing Fort Worth Center
07:54PM 32.9917 -94.6339 80° East 547 629 33,000 240 Climbing Fort Worth Center
07:55PM 33.0194 -94.4536 80° East 554 638 33,000  Level Fort Worth Center
07:56PM 33.0486 -94.2314 81° East 569 655 33,000  Level Fort Worth Center
07:57PM 33.0753 -94.0489 80° East 568 654 33,000  Level Fort Worth Center
07:58PM 33.1017 -93.8669 80° East 568 654 33,000  Level Fort Worth Center
07:59PM 33.1275 -93.6853 80° East 568 654 33,000 240 Level Fort Worth Center
08:01PM 33.1583 -93.4661 80° East 565 650 33,600 600 Climbing Fort Worth Center
08:02PM 33.1831 -93.2811 81° East 568 654 34,300 660 Climbing Fort Worth Center
08:03PM 33.2081 -93.0986 81° East 562 647 35,000 300 Climbing Fort Worth Center
08:04PM 33.2342 -92.9128 80° East 564 649 35,000  Level Fort Worth Center
08:05PM 33.2583 -92.7292 81° East 567 652 35,000  Level Fort Worth Center
08:06PM 33.2783 -92.5069 84° East 565 650 35,000  Level Fort Worth Center
08:07PM 33.2981 -92.2853 84° East 564 649 35,000  Level Memphis Center
08:08PM 33.3147 -92.1000 84° East 564 649 35,000  Level Memphis Center
08:09PM 33.3325 -91.8983 84° East 564 649 35,000  Level Memphis Center
08:10PM 33.3517 -91.6969 83° East 564 649 35,000  Level Memphis Center
08:11PM 33.3642 -91.5106 85° East 564 649 35,000  Level Memphis Center
08:12PM 33.3806 -91.3247 84° East 564 649 35,000  Level Memphis Center
08:13PM 33.3975 -91.1381 84° East 564 649 35,000  Level Memphis Center
08:14PM 33.4136 -90.9519 84° East 564 649 35,000  Level Memphis Center
08:15PM 33.4311 -90.7269 85° East 564 649 35,000  Level Memphis Center
08:16PM 33.4439 -90.5397 85° East 564 649 35,000  Level Memphis Center
08:17PM 33.4589 -90.3514 84° East 565 650 35,000  Level Memphis Center
08:18PM 33.4669 -90.1611 87° East 568 654 35,000  Level Memphis Center
08:19PM 33.4689 -89.9725 89° East 568 654 35,000  Level Memphis Center
08:20PM 33.4722 -89.7639 89° East 568 654 35,000  Level Memphis Center
08:21PM 33.4750 -89.5914 89° East 568 654 35,000  Level Memphis Center
08:22PM 33.4783 -89.3614 89° East 570 656 35,000  Level Memphis Center
08:24PM 33.4806 -89.1686 89° East 575 662 35,000  Level Memphis Center
08:25PM 33.4828 -88.9769 89° East 575 662 35,000  Level Memphis Center
08:26PM 33.4836 -88.7850 90° East 576 663 35,000  Level Memphis Center
08:27PM 33.4856 -88.5928 89° East 576 663 35,000  Level Memphis Center
08:28PM 33.5000 -88.3892 85° East 577 664 35,000  Level Memphis Center
08:29PM 33.5219 -88.2131 81° East 578 665 35,000  Level Memphis Center
08:30PM 33.5456 -88.0103 82° East 578 665 35,000  Level Memphis Center
08:31PM 33.5714 -87.7825 82° East 578 665 35,000  Level Memphis Center
08:32PM 33.5931 -87.5942 82° East 577 664 35,000  Level Memphis Center
08:33PM 33.6147 -87.4033 82° East 578 665 35,000  Level Memphis Center
08:33PM 33.6264 -87.2819 83° East 580 667 35,000  Level Atlanta Center
08:34PM 33.6458 -87.0906 83° East 575 662 35,000  Level Atlanta Center
08:35PM 33.6672 -86.8992 82° East 575 662 35,000  Level Atlanta Center
08:36PM 33.6672 -86.7044 90° East 575 662 35,000  Level Atlanta Center
08:37PM 33.6672 -86.5122 90° East 570 656 35,000  Level Atlanta Center
08:38PM 33.6625 -86.3200 92° East 570 656 35,000  Level Atlanta Center
08:39PM 33.6617 -86.1253 90° East 575 662 35,000  Level Atlanta Center
08:40PM 33.6586 -85.9331 91° East 575 662 35,000  Level Atlanta Center
08:42PM 33.6575 -85.5736 92° East 570 656 35,000  Level Atlanta Center
08:43PM 33.6514 -85.3789 92° East 575 662 35,000  Level Atlanta Center
08:44PM 33.6472 -85.1642 91° East 575 662 35,000  Level Atlanta Center
08:45PM 33.6425 -84.9694 92° East 575 662 35,000  Level Atlanta Center
08:46PM 33.6375 -84.7750 92° East 575 662 35,000  Level Atlanta Center
08:47PM 33.6322 -84.5828 92° East 580 667 35,000  Level Atlanta Center
08:48PM 33.6350 -84.4131 89° East 569 655 35,000  Level Atlanta Center
08:49PM 33.6856 -84.2311 71° East 564 649 35,000  Level Atlanta Center
08:50PM 33.7419 -84.0314 71° East 564 649 35,000  Level Atlanta Center
08:51PM 33.7919 -83.8489 72° East 569 655 35,000  Level Atlanta Center
08:52PM 33.8417 -83.6711 71° East 569 655 35,000  Level Atlanta Center
08:53PM 33.8933 -83.4883 71° East 564 649 35,000  Level Atlanta Center
08:54PM 33.9422 -83.3100 72° East 559 643 35,000  Level Atlanta Center
08:55PM 33.9911 -83.1267 72° East 564 649 35,000  Level Atlanta Center
08:56PM 34.0378 -82.9483 72° East 564 649 35,000  Level Atlanta Center
08:57PM 34.0883 -82.7697 71° East 564 649 35,000  Level Atlanta Center
08:58PM 34.1303 -82.6058 73° East 564 649 35,000  Level Atlanta Center
08:59PM 34.1803 -82.4242 72° East 564 649 35,000  Level Atlanta Center
09:00PM 34.2297 -82.2425 72° East 564 649 35,000  Level Atlanta Center
09:01PM 34.2939 -82.0700 66° East 558 642 35,000  Level Atlanta Center
09:02PM 34.3769 -81.9094 58° Northeast 544 626 35,000  Level Atlanta Center
09:03PM 34.4533 -81.7464 60° Northeast 550 633 35,000  Level Atlanta Center
09:04PM 34.5358 -81.5903 57° Northeast 550 633 35,000  Level Atlanta Center
09:05PM 34.6117 -81.4267 61° Northeast 550 633 35,000  Level Atlanta Center
09:06PM 34.6997 -81.2544 58° Northeast 544 626 35,000  Level Atlanta Center
09:07PM 34.7794 -81.0875 60° Northeast 549 632 35,000  Level Atlanta Center
09:08PM 34.8569 -80.9331 59° Northeast 554 638 35,000  Level Atlanta Center
09:09PM 34.9381 -80.7653 59° Northeast 545 627 35,000  Level Atlanta Center
09:10PM 35.0150 -80.6050 60° Northeast 550 633 35,000  Level Atlanta Center
09:11PM 35.0917 -80.4419 60° Northeast 550 633 35,000  Level Atlanta Center
09:13PM 35.2303 -80.1536 59° Northeast 538 619 35,000  Level Washington Center
09:14PM 35.3183 -79.9756 59° Northeast 545 627 35,000  Level Washington Center
09:15PM 35.3953 -79.8114 60° Northeast 545 627 35,000  Level Washington Center
09:16PM 35.4719 -79.6472 60° Northeast 545 627 35,000  Level Washington Center
09:17PM 35.5381 -79.4769 64° Northeast 545 627 35,000  Level Washington Center
09:18PM 35.5794 -79.2875 75° East 560 644 35,000 -240 Level Washington Center
09:19PM 35.6267 -79.1031 72° East 560 644 34,600 -720 Descending Washington Center
09:20PM 35.6736 -78.9211 72° East 555 639 33,600 -1,020 Descending Washington Center
09:21PM 35.7225 -78.7339 72° East 555 639 32,600 -1,020 Descending Washington Center
09:22PM 35.7689 -78.5489 73° East 560 644 31,600 -1,020 Descending Washington Center
09:23PM 35.8153 -78.3661 73° East 560 644 30,600 -1,380 Descending Washington Center
09:24PM 35.8611 -78.1831 73° East 555 639 28,800 -1,980 Descending Washington Center
09:25PM 35.9044 -78.0025 73° East 550 633 26,700 -1,920 Descending Washington Center
09:26PM 35.9431 -77.8447 73° East 545 627 25,000 -1,620 Descending Washington Center
09:27PM 35.9942 -77.6714 70° East 540 621 23,500 -1,020 Descending Washington Center
09:28PM 36.0653 -77.5242 59° Northeast 518 596 23,000 -360 Descending Washington Center
09:29PM 36.1367 -77.3742 59° Northeast 503 579 22,900 -1,080 Descending Washington Center
09:30PM 36.2053 -77.2292 60° Northeast 498 573 20,900 -2,160 Descending Washington Center
09:31PM 36.2483 -77.1400 59° Northeast 488 562 19,600 -2,220 Descending Washington Center
09:31PM 36.2933 -77.0428 60° Northeast 474 545 18,200 -2,100 Descending Washington Center
09:32PM 36.3533 -76.9072 61° Northeast 446 513 16,000 -2,400 Descending Washington Center
09:33PM 36.3983 -76.8022 62° Northeast 442 509 14,000 -2,700 Descending Washington Center
09:33PM 36.4131 -76.7792 52° Northeast 426 490 13,300 -1,800 Descending Washington Center
09:34PM 36.4578 -76.6817 60° Northeast 428 493 12,200 -1,500 Descending Washington Center
09:35PM 36.4706 -76.6614 52° Northeast 383 441 11,800 -1,380 Descending Washington Center
09:35PM 36.5150 -76.5767 57° Northeast 393 452 10,800 -1,380 Descending Washington Center
09:36PM 36.5319 -76.5586 41° Northeast 336 387 10,400 -1,920 Descending Washington Center
09:36PM 36.5822 -76.5050 41° Northeast 332 382 9,000 -2,220 Descending Washington Center
09:37PM 36.5969 -76.4947 29° Northeast 299 344 8,200 -2,340 Descending Washington Center
09:37PM 36.6453 -76.4436 40° Northeast 308 354 6,700 -1,920 Descending Washington Center
09:38PM 36.6581 -76.4333 33° Northeast 270 311 6,300 -1,680 Descending Washington Center
09:38PM 36.6981 -76.3897 41° Northeast 271 312 5,000 -1,740 Descending Washington Center
09:39PM 36.7125 -76.3744 40° Northeast 242 278 4,600 -960 Descending Washington Center
09:39PM 36.7442 -76.3461 36° Northeast 239 275 4,100 -900 Descending Washington Center
09:39PM 36.7567 -76.3358 33° Northeast 225 259 3,800 -1,140 Descending Washington Center
09:40PM 36.7881 -76.3025 40° Northeast 216 249 3,000 -1,320 Descending Washington Center
09:40PM 36.8008 -76.2922 33° Northeast 173 199 2,500 -1,200 Descending Washington Center
09:41PM 36.8364 -76.2614 35° Northeast 132 152 1,600 -900 Descending Washington Center
09:42PM 36.8617 -76.2358 39° Northeast 115 132 800 -840 Descending Washington Center